LFBE

Bergerac-Roumanière Airport

Airport
ICAO code
LFBE
IATA Code
EGC
Summary
ICAO Region
EUR
ICAO Territory
Location

, Aquitaine

Serving
Bergerac
Elevation
171 ft
Coordinates
44° 49' 31" N , 0° 31' 7" E
Metar
Observation
LFBE 071930Z AUTO VRB01KT CAVOK 15/14 Q1020 NOSIG
Station
Bergerac
Date/Time
2022-10-07 19:30:00
Wind speed
01 kts
Lowest cloud amount
clouds and visibility OK
Temperature
15°C
Dew point
14°C
Humidity
93%
QNH
1020 hPa
Weather condition
n/a

Runways

Designator Length Width Surface Rops
10/28 2205 45 ASP Yes/Yes

Airport map

Aerial View

SKYbrary Partners:

Safety knowledge contributed by: